createdAt,value
2023-03-05T00:00:33.413Z,61.25
2023-03-05T00:02:35.485Z,61.68
2023-03-05T00:04:37.522Z,62.50
2023-03-05T00:06:40.561Z,61.15
2023-03-05T00:08:42.405Z,62.07
2023-03-05T00:10:44.314Z,61.90
2023-03-05T00:12:46.259Z,62.55
2023-03-05T00:14:48.216Z,62.74
2023-03-05T00:16:52.231Z,62.67
2023-03-05T00:18:57.345Z,61.86
2023-03-05T00:20:59.238Z,61.88
2023-03-05T00:23:01.148Z,62.45
2023-03-05T00:25:04.391Z,62.87
2023-03-05T00:27:06.393Z,61.61
2023-03-05T00:29:09.411Z,62.60
2023-03-05T00:31:14.456Z,62.13
2023-03-05T00:33:16.512Z,61.90
2023-03-05T00:35:18.496Z,61.62
2023-03-05T00:37:20.361Z,62.24
2023-03-05T00:39:23.286Z,62.43
2023-03-05T00:41:25.660Z,62.03
2023-03-05T00:43:28.224Z,62.64
2023-03-05T00:45:30.450Z,61.58
2023-03-05T00:47:32.708Z,61.52
2023-03-05T00:49:34.759Z,61.15
2023-03-05T00:51:36.835Z,62.12
2023-03-05T00:53:38.842Z,62.60
2023-03-05T00:55:40.746Z,61.69
2023-03-05T00:57:42.782Z,63.14
2023-03-05T00:59:45.791Z,62.98
2023-03-05T01:01:47.750Z,63.04
2023-03-05T01:03:49.755Z,62.85
2023-03-05T01:05:51.733Z,63.20
2023-03-05T01:07:55.521Z,63.24
2023-03-05T01:09:57.624Z,63.33
2023-03-05T01:12:00.780Z,63.11
2023-03-05T01:14:03.817Z,63.15
2023-03-05T01:16:06.242Z,62.86
2023-03-05T01:18:08.195Z,62.78
2023-03-05T01:20:13.217Z,63.46
2023-03-05T01:22:15.158Z,63.95
2023-03-05T01:24:17.120Z,63.23
2023-03-05T01:26:19.168Z,63.60
2023-03-05T01:28:21.102Z,63.69
2023-03-05T01:30:23.573Z,64.43
2023-03-05T01:32:25.658Z,63.48
2023-03-05T01:34:27.617Z,64.00
2023-03-05T01:36:30.433Z,65.24
2023-03-05T01:38:32.505Z,64.67
2023-03-05T01:40:34.667Z,64.61
2023-03-05T01:42:36.721Z,64.67
2023-03-05T01:44:38.700Z,66.15
2023-03-05T01:46:41.817Z,65.78
2023-03-05T01:48:49.781Z,65.99
2023-03-05T01:50:52.205Z,66.48
2023-03-05T01:53:01.367Z,67.64
2023-03-05T01:55:06.566Z,67.09
2023-03-05T01:57:13.301Z,66.43
2023-03-05T01:59:16.803Z,68.21
2023-03-05T02:01:19.674Z,67.75
2023-03-05T02:03:23.933Z,68.12
2023-03-05T02:05:29.116Z,67.68
2023-03-05T02:07:32.088Z,68.11
2023-03-05T02:09:34.108Z,68.74
2023-03-05T02:11:36.816Z,68.29
2023-03-05T02:13:40.902Z,69.44
2023-03-05T02:15:43.911Z,68.02
2023-03-05T02:17:46.427Z,69.49
2023-03-05T02:19:56.573Z,69.38
2023-03-05T02:21:58.517Z,68.45
2023-03-05T02:24:00.402Z,69.13
2023-03-05T02:26:07.170Z,68.34
2023-03-05T02:28:33.173Z,69.39
2023-03-05T02:30:37.236Z,68.77
2023-03-05T02:32:39.166Z,69.48
2023-03-05T02:34:41.411Z,69.57
2023-03-05T02:36:44.381Z,68.28
2023-03-05T02:38:46.624Z,69.25
2023-03-05T02:40:48.586Z,68.85
2023-03-05T02:42:50.637Z,68.78
2023-03-05T02:44:53.610Z,68.72
2023-03-05T02:46:56.537Z,68.13
2023-03-05T02:48:58.506Z,67.86
2023-03-05T02:51:01.863Z,68.49
2023-03-05T02:53:03.762Z,68.68
2023-03-05T02:55:06.465Z,68.20
2023-03-05T02:57:08.341Z,67.80
2023-03-05T02:59:10.263Z,67.72
2023-03-05T03:01:20.154Z,67.56
2023-03-05T03:03:22.158Z,67.53
2023-03-05T03:05:24.659Z,68.68
2023-03-05T03:07:26.559Z,66.95
2023-03-05T03:09:29.479Z,68.20
2023-03-05T03:11:31.480Z,67.31
2023-03-05T03:13:33.352Z,66.51
2023-03-05T03:15:35.341Z,66.60
2023-03-05T03:17:38.156Z,66.73
2023-03-05T03:19:41.276Z,66.17
2023-03-05T03:21:43.195Z,66.21
2023-03-05T03:23:45.669Z,66.71
2023-03-05T03:25:47.498Z,65.74
2023-03-05T03:27:49.677Z,66.04
2023-03-05T03:29:54.812Z,65.80
2023-03-05T03:31:56.968Z,65.43
2023-03-05T03:33:58.927Z,67.18
2023-03-05T03:36:01.224Z,66.26
2023-03-05T03:38:03.459Z,66.00
2023-03-05T03:40:06.541Z,65.63
2023-03-05T03:42:08.396Z,64.71
2023-03-05T03:44:13.778Z,66.02
2023-03-05T03:46:15.766Z,65.36
2023-03-05T03:48:18.184Z,65.64
2023-03-05T03:50:25.275Z,65.47
2023-03-05T03:52:27.329Z,65.18
2023-03-05T03:54:30.442Z,65.54
2023-03-05T03:56:32.345Z,65.04
2023-03-05T03:58:34.293Z,65.42
2023-03-05T04:00:36.279Z,64.31
2023-03-05T04:02:40.780Z,64.21
2023-03-05T04:04:42.694Z,65.05
2023-03-05T04:06:44.923Z,64.01
2023-03-05T04:08:46.972Z,64.27
2023-03-05T04:10:48.890Z,64.56
2023-03-05T04:12:50.798Z,64.54
2023-03-05T04:14:53.024Z,64.62
2023-03-05T04:16:56.108Z,64.81
2023-03-05T04:18:58.104Z,64.74
2023-03-05T04:20:59.937Z,65.03
2023-03-05T04:23:01.814Z,64.62
2023-03-05T04:25:06.763Z,64.38
2023-03-05T04:27:09.283Z,64.42
2023-03-05T04:29:11.231Z,63.89
2023-03-05T04:31:13.296Z,64.90
2023-03-05T04:33:15.800Z,64.37
2023-03-05T04:35:18.086Z,64.89
2023-03-05T04:37:19.995Z,64.05
2023-03-05T04:39:22.024Z,63.99
2023-03-05T04:41:23.868Z,64.24
2023-03-05T04:43:25.717Z,63.70
2023-03-05T04:45:27.724Z,63.37
2023-03-05T04:47:29.664Z,62.99
2023-03-05T04:49:31.553Z,63.07
2023-03-05T04:51:33.486Z,62.54
2023-03-05T04:53:36.262Z,63.32
2023-03-05T04:55:38.245Z,63.71
2023-03-05T04:57:43.599Z,63.10
2023-03-05T04:59:54.388Z,63.28
2023-03-05T05:01:56.725Z,62.30
2023-03-05T05:03:58.746Z,63.06
2023-03-05T05:06:01.960Z,62.54
2023-03-05T05:08:15.986Z,63.00
2023-03-05T05:10:18.023Z,62.65
2023-03-05T05:12:22.355Z,62.21
2023-03-05T05:14:24.364Z,62.38
2023-03-05T05:16:27.286Z,63.56
2023-03-05T05:18:29.272Z,62.73
2023-03-05T05:20:31.234Z,62.25
2023-03-05T05:22:34.262Z,62.33
2023-03-05T05:24:36.214Z,62.36
2023-03-05T05:26:38.359Z,62.54
2023-03-05T05:28:43.332Z,62.43
2023-03-05T05:30:45.178Z,62.44
2023-03-05T05:32:47.209Z,61.46
2023-03-05T05:34:57.970Z,62.54
2023-03-05T05:36:59.892Z,61.30
2023-03-05T05:39:01.745Z,61.77
2023-03-05T05:41:09.086Z,60.07
2023-03-05T05:43:12.253Z,60.36
2023-03-05T05:45:14.357Z,60.33
2023-03-05T05:47:17.365Z,60.19
2023-03-05T05:49:20.240Z,59.44
2023-03-05T05:51:24.238Z,59.14
2023-03-05T05:53:26.741Z,58.94
2023-03-05T05:55:29.766Z,58.98
2023-03-05T05:57:31.597Z,59.11
2023-03-05T05:59:33.760Z,58.38
2023-03-05T06:01:35.843Z,58.48
2023-03-05T06:03:37.775Z,57.89
2023-03-05T06:05:41.987Z,57.72
2023-03-05T06:07:43.950Z,58.14
2023-03-05T06:09:46.895Z,56.21
2023-03-05T06:11:48.891Z,57.07
2023-03-05T06:13:51.325Z,56.32
2023-03-05T06:16:01.089Z,56.80
2023-03-05T06:18:03.098Z,57.76
2023-03-05T06:20:07.193Z,58.24
2023-03-05T06:22:09.107Z,56.40
2023-03-05T06:24:11.472Z,56.15
2023-03-05T06:26:15.820Z,55.86
2023-03-05T06:28:18.015Z,54.71
2023-03-05T06:30:19.916Z,54.15
2023-03-05T06:32:21.834Z,53.69
2023-03-05T06:34:23.919Z,53.64
2023-03-05T06:36:26.251Z,53.91
2023-03-05T06:38:28.958Z,54.75
2023-03-05T06:40:30.946Z,53.80
2023-03-05T06:42:34.305Z,54.18
2023-03-05T06:44:40.292Z,53.94
2023-03-05T06:46:42.499Z,53.75
2023-03-05T06:48:44.542Z,53.47
2023-03-05T06:50:46.722Z,52.59
2023-03-05T06:52:51.760Z,52.88
2023-03-05T06:54:56.012Z,53.28
2023-03-05T06:56:58.272Z,53.33
2023-03-05T06:59:00.188Z,53.74
2023-03-05T07:01:04.728Z,53.61
2023-03-05T07:03:06.548Z,54.02
2023-03-05T07:05:08.939Z,53.94
2023-03-05T07:07:10.823Z,53.87
2023-03-05T07:09:15.634Z,53.02
2023-03-05T07:11:20.902Z,53.39
2023-03-05T07:13:22.815Z,53.77
2023-03-05T07:15:25.804Z,53.17
2023-03-05T07:17:30.287Z,54.19
2023-03-05T07:19:32.192Z,54.58
2023-03-05T07:21:36.060Z,55.11
2023-03-05T07:23:39.538Z,54.99
2023-03-05T07:25:41.486Z,55.33
2023-03-05T07:27:43.423Z,56.44
2023-03-05T07:29:45.328Z,56.06
2023-03-05T07:31:47.268Z,56.84
2023-03-05T07:33:50.633Z,56.01
2023-03-05T07:35:52.666Z,56.42
2023-03-05T07:37:56.043Z,57.27
2023-03-05T07:39:58.332Z,57.64
2023-03-05T07:42:00.403Z,57.62
2023-03-05T07:44:02.504Z,58.25
2023-03-05T07:46:06.739Z,58.63
2023-03-05T07:48:12.811Z,58.15
2023-03-05T07:50:14.676Z,57.87
2023-03-05T07:52:17.077Z,58.34
2023-03-05T07:54:19.093Z,58.35
2023-03-05T07:56:26.278Z,58.75
2023-03-05T07:58:28.208Z,58.79
2023-03-05T08:00:33.928Z,58.77
2023-03-05T08:02:35.895Z,58.25
2023-03-05T08:04:38.692Z,58.42
2023-03-05T08:06:42.317Z,58.50
2023-03-05T08:08:44.400Z,58.69
2023-03-05T08:10:47.469Z,58.78
2023-03-05T08:12:49.337Z,58.21
2023-03-05T08:14:51.840Z,57.95
2023-03-05T08:16:53.811Z,58.32
2023-03-05T08:18:57.530Z,57.63
2023-03-05T08:20:59.790Z,57.60
2023-03-05T08:23:03.452Z,57.78
2023-03-05T08:25:06.615Z,58.99
2023-03-05T08:27:08.590Z,57.16
2023-03-05T08:29:11.376Z,57.25
2023-03-05T08:31:15.370Z,57.52
2023-03-05T08:33:17.942Z,57.31
2023-03-05T08:35:19.938Z,58.37
2023-03-05T08:37:21.925Z,57.74
2023-03-05T08:39:23.911Z,57.44
2023-03-05T08:41:25.847Z,57.22
2023-03-05T08:43:27.985Z,57.59
2023-03-05T08:45:30.077Z,58.23
2023-03-05T08:47:32.060Z,57.33
2023-03-05T08:49:34.078Z,57.56
2023-03-05T08:51:38.090Z,58.32
2023-03-05T08:53:40.639Z,57.58
2023-03-05T08:55:44.185Z,58.21
2023-03-05T08:57:46.307Z,58.12
2023-03-05T08:59:50.665Z,58.87
2023-03-05T09:01:52.604Z,59.17
2023-03-05T09:03:55.648Z,58.78
2023-03-05T09:06:05.835Z,57.64
2023-03-05T09:08:07.835Z,58.11
2023-03-05T09:10:11.938Z,58.41
2023-03-05T09:12:16.103Z,58.36
2023-03-05T09:14:18.448Z,58.38
2023-03-05T09:16:21.889Z,58.55
2023-03-05T09:18:24.626Z,58.58
2023-03-05T09:20:27.850Z,57.52
2023-03-05T09:22:30.326Z,58.60
2023-03-05T09:24:33.360Z,58.53
2023-03-05T09:26:35.301Z,59.19
2023-03-05T09:28:37.315Z,59.71
2023-03-05T09:30:39.309Z,59.26
2023-03-05T09:32:42.333Z,59.65
2023-03-05T09:34:44.301Z,60.37
2023-03-05T09:36:48.926Z,59.48
2023-03-05T09:38:51.253Z,59.22
2023-03-05T09:41:30.513Z,58.96
2023-03-05T09:43:49.482Z,58.60
2023-03-05T09:46:23.560Z,60.06
2023-03-05T09:48:51.801Z,58.66
2023-03-05T09:51:02.355Z,59.24
2023-03-05T09:53:28.672Z,59.61
2023-03-05T09:55:40.620Z,60.54
2023-03-05T09:57:51.808Z,60.40
2023-03-05T10:00:08.884Z,60.84
2023-03-05T10:02:21.786Z,61.22
2023-03-05T10:04:36.426Z,60.29
2023-03-05T10:06:57.792Z,60.69
2023-03-05T10:09:11.763Z,60.81
2023-03-05T10:11:27.164Z,61.03
2023-03-05T10:13:41.560Z,61.36
2023-03-05T10:15:53.194Z,60.45
2023-03-05T10:18:00.831Z,60.42
2023-03-05T10:20:20.935Z,60.52
2023-03-05T10:22:33.457Z,60.90
2023-03-05T10:24:44.310Z,61.56
2023-03-05T10:26:46.276Z,61.71
2023-03-05T10:29:03.646Z,61.26
2023-03-05T10:31:13.175Z,61.01
2023-03-05T10:33:35.681Z,60.48
2023-03-05T10:35:51.285Z,60.56
2023-03-05T10:38:15.711Z,60.55
2023-03-05T10:40:23.686Z,61.05
2023-03-05T10:42:41.665Z,60.52
2023-03-05T10:44:55.249Z,60.90
2023-03-05T10:47:00.171Z,60.31
2023-03-05T10:49:15.868Z,61.05
2023-03-05T10:51:35.808Z,62.14
2023-03-05T10:53:48.175Z,62.21
2023-03-05T10:55:52.015Z,62.75
2023-03-05T10:57:54.179Z,64.51
2023-03-05T11:00:08.663Z,63.92
2023-03-05T11:02:10.716Z,65.36
2023-03-05T11:04:33.082Z,66.17
2023-03-05T11:06:35.679Z,68.03
2023-03-05T11:08:38.236Z,68.84
2023-03-05T11:10:40.460Z,69.63
2023-03-05T11:12:43.108Z,70.64
2023-03-05T11:15:07.719Z,71.56
2023-03-05T11:17:30.014Z,72.95
2023-03-05T11:19:34.944Z,73.20
2023-03-05T11:21:37.186Z,72.80
2023-03-05T11:23:39.471Z,73.32
2023-03-05T11:25:57.398Z,73.26
2023-03-05T11:28:01.857Z,72.49
2023-03-05T11:30:05.446Z,71.41
2023-03-05T11:32:22.931Z,71.48
2023-03-05T11:34:36.014Z,70.62
2023-03-05T11:36:42.653Z,70.12
2023-03-05T11:38:50.486Z,69.94
2023-03-05T11:40:57.015Z,71.92
2023-03-05T11:43:02.335Z,72.85
2023-03-05T11:45:05.679Z,72.97
2023-03-05T11:47:27.138Z,74.04
2023-03-05T11:49:30.443Z,75.11
2023-03-05T11:52:02.470Z,74.44
2023-03-05T11:54:08.089Z,74.57
2023-03-05T11:56:21.884Z,74.87
2023-03-05T11:58:39.340Z,75.54
2023-03-05T12:00:45.775Z,76.01
2023-03-05T12:02:54.152Z,75.60
2023-03-05T12:05:03.438Z,76.33
2023-03-05T12:07:06.071Z,76.80
2023-03-05T12:09:42.316Z,77.38
2023-03-05T12:11:46.117Z,77.40
2023-03-05T12:14:20.356Z,78.36
2023-03-05T12:16:45.256Z,78.18
2023-03-05T12:18:57.044Z,78.18
2023-03-05T12:21:06.818Z,78.06
2023-03-05T12:23:19.217Z,77.72
2023-03-05T12:25:35.692Z,78.27
2023-03-05T12:27:40.325Z,79.25
2023-03-05T12:29:46.700Z,79.91
2023-03-05T12:31:49.376Z,80.63
2023-03-05T12:33:51.663Z,80.80
2023-03-05T12:35:53.799Z,81.29
2023-03-05T12:37:57.836Z,81.55
2023-03-05T12:40:19.128Z,81.35
2023-03-05T12:42:30.327Z,80.12
2023-03-05T12:44:35.429Z,80.81
2023-03-05T12:46:43.449Z,80.73
2023-03-05T12:48:47.678Z,81.06
2023-03-05T12:50:53.020Z,81.55
2023-03-05T12:53:16.172Z,81.11
2023-03-05T12:55:34.348Z,81.45
2023-03-05T12:57:37.810Z,81.13
2023-03-05T12:59:49.551Z,81.24
2023-03-05T13:02:01.570Z,81.63
2023-03-05T13:04:17.665Z,80.66
2023-03-05T13:06:34.172Z,80.79
2023-03-05T13:08:38.558Z,79.62
2023-03-05T13:10:40.796Z,76.43
2023-03-05T13:12:53.381Z,78.63
2023-03-05T13:15:14.669Z,78.17
2023-03-05T13:17:53.817Z,79.88
2023-03-05T13:20:02.224Z,78.67
2023-03-05T13:22:12.252Z,80.89
2023-03-05T13:24:20.346Z,80.34
2023-03-05T13:26:22.719Z,78.33
2023-03-05T13:28:25.126Z,78.76
2023-03-05T13:30:34.636Z,79.31
2023-03-05T13:32:37.757Z,77.77
2023-03-05T13:34:48.194Z,78.49
2023-03-05T13:37:04.498Z,78.25
2023-03-05T13:39:08.120Z,77.83
2023-03-05T13:41:17.265Z,77.11
2023-03-05T13:43:21.345Z,78.04
2023-03-05T13:45:26.689Z,80.27
2023-03-05T13:47:32.748Z,81.16
2023-03-05T13:49:35.222Z,81.35
2023-03-05T13:51:53.221Z,81.27
2023-03-05T13:53:55.995Z,80.17
2023-03-05T13:56:03.853Z,79.70
2023-03-05T13:58:06.548Z,79.76
2023-03-05T14:00:31.049Z,79.07
2023-03-05T14:02:34.751Z,78.86
2023-03-05T14:04:42.026Z,78.50
2023-03-05T14:06:59.177Z,78.62
2023-03-05T14:09:17.909Z,78.77
2023-03-05T14:11:23.851Z,79.32
2023-03-05T14:13:32.661Z,77.35
2023-03-05T14:15:36.964Z,78.38
2023-03-05T14:17:45.530Z,79.19
2023-03-05T14:19:48.664Z,78.87
2023-03-05T14:21:51.935Z,78.45
2023-03-05T14:23:55.497Z,78.53
2023-03-05T14:26:16.979Z,78.44
2023-03-05T14:28:21.985Z,78.02
2023-03-05T14:30:26.561Z,78.24
2023-03-05T14:32:38.835Z,79.09
2023-03-05T14:34:44.745Z,79.46
2023-03-05T14:36:55.682Z,79.29
2023-03-05T14:38:59.131Z,78.51
2023-03-05T14:41:21.119Z,78.91
2023-03-05T14:43:24.874Z,79.84
2023-03-05T14:45:32.547Z,79.58
2023-03-05T14:47:39.098Z,79.89
2023-03-05T14:49:42.084Z,80.50
2023-03-05T14:51:46.607Z,79.98
2023-03-05T14:53:52.966Z,80.22
2023-03-05T14:55:57.698Z,80.32
2023-03-05T14:58:21.054Z,79.95
2023-03-05T15:00:30.147Z,80.37
2023-03-05T15:02:32.820Z,79.99
2023-03-05T15:04:35.933Z,80.44
2023-03-05T15:06:42.691Z,81.21
2023-03-05T15:08:46.797Z,81.49
2023-03-05T15:10:51.433Z,81.60
2023-03-05T15:12:55.392Z,80.04
2023-03-05T15:14:58.290Z,80.61
2023-03-05T15:17:01.048Z,81.37
2023-03-05T15:19:05.280Z,81.80
2023-03-05T15:21:19.924Z,79.78
2023-03-05T15:23:25.365Z,79.90
2023-03-05T15:25:31.223Z,79.97
2023-03-05T15:27:37.769Z,79.52
2023-03-05T15:29:43.809Z,80.44
2023-03-05T15:31:49.026Z,79.94
2023-03-05T15:33:52.136Z,80.51
2023-03-05T15:35:56.706Z,80.11
2023-03-05T15:38:00.914Z,80.16
2023-03-05T15:40:04.336Z,80.44
2023-03-05T15:42:08.640Z,81.21
2023-03-05T15:44:11.742Z,81.50
2023-03-05T15:46:14.173Z,81.41
2023-03-05T15:48:17.400Z,82.03
2023-03-05T15:50:23.413Z,81.41
2023-03-05T15:52:32.245Z,82.22
2023-03-05T15:54:37.068Z,82.06
2023-03-05T15:56:42.355Z,81.70
2023-03-05T15:58:50.441Z,82.68
2023-03-05T16:01:04.373Z,82.33
2023-03-05T16:03:08.372Z,81.83
2023-03-05T16:05:12.601Z,82.08
2023-03-05T16:07:16.685Z,81.58
2023-03-05T16:09:25.708Z,82.63
2023-03-05T16:11:30.736Z,81.76
2023-03-05T16:13:36.222Z,81.93
2023-03-05T16:15:46.248Z,82.88
2023-03-05T16:17:54.419Z,82.69
2023-03-05T16:20:03.682Z,82.35
2023-03-05T16:22:08.619Z,83.28
2023-03-05T16:24:15.939Z,83.47
2023-03-05T16:26:25.571Z,83.59
2023-03-05T16:28:32.927Z,83.13
2023-03-05T16:30:39.079Z,84.37
2023-03-05T16:32:42.881Z,84.12
2023-03-05T16:34:49.267Z,84.88
2023-03-05T16:36:57.032Z,84.85
2023-03-05T16:39:00.772Z,85.39
2023-03-05T16:41:08.828Z,84.94
2023-03-05T16:43:12.104Z,85.53
2023-03-05T16:45:15.892Z,85.93
2023-03-05T16:47:18.834Z,86.19
2023-03-05T16:49:23.882Z,86.71
2023-03-05T16:51:28.562Z,86.61
2023-03-05T16:53:31.032Z,86.76
2023-03-05T16:55:34.134Z,85.76
2023-03-05T16:57:39.861Z,86.67
2023-03-05T16:59:44.441Z,86.41
2023-03-05T17:01:47.462Z,87.06
2023-03-05T17:03:50.707Z,86.36
2023-03-05T17:05:54.988Z,87.45
2023-03-05T17:07:58.724Z,86.94
2023-03-05T17:10:04.385Z,86.96
2023-03-05T17:12:07.872Z,87.17
2023-03-05T17:14:11.956Z,86.92
2023-03-05T17:16:19.088Z,87.79
2023-03-05T17:18:22.167Z,87.08
2023-03-05T17:20:26.266Z,87.74
2023-03-05T17:22:29.441Z,87.40
2023-03-05T17:24:33.719Z,87.62
2023-03-05T17:26:37.189Z,87.54
2023-03-05T17:28:40.895Z,87.59
2023-03-05T17:30:43.926Z,87.33
2023-03-05T17:32:49.029Z,87.09
2023-03-05T17:34:58.155Z,86.99
2023-03-05T17:37:05.593Z,86.14
2023-03-05T17:39:09.969Z,85.41
2023-03-05T17:41:14.557Z,85.30
2023-03-05T17:43:20.189Z,86.10
2023-03-05T17:45:23.990Z,85.36
2023-03-05T17:47:27.202Z,86.22
2023-03-05T17:49:31.367Z,85.03
2023-03-05T17:51:34.582Z,86.08
2023-03-05T17:53:49.427Z,85.02
2023-03-05T17:55:53.889Z,85.67
2023-03-05T17:57:57.173Z,86.43
2023-03-05T18:00:00.384Z,85.82
2023-03-05T18:02:03.173Z,85.15
2023-03-05T18:04:06.527Z,85.09
2023-03-05T18:06:11.560Z,84.24
2023-03-05T18:08:18.456Z,84.34
2023-03-05T18:10:23.283Z,83.97
2023-03-05T18:12:28.352Z,84.95
2023-03-05T18:14:35.896Z,83.92
2023-03-05T18:16:39.259Z,83.52
2023-03-05T18:18:42.409Z,83.30
2023-03-05T18:20:46.180Z,83.58
2023-03-05T18:22:49.267Z,83.32
2023-03-05T18:24:53.286Z,83.04
2023-03-05T18:26:56.488Z,84.42
2023-03-05T18:29:00.427Z,84.07
2023-03-05T18:31:08.455Z,83.65
2023-03-05T18:33:23.815Z,83.80
2023-03-05T18:35:27.929Z,83.01
2023-03-05T18:37:34.195Z,82.70
2023-03-05T18:39:36.682Z,83.46
2023-03-05T18:41:42.324Z,82.95
2023-03-05T18:43:45.358Z,83.61
2023-03-05T18:45:58.371Z,84.90
2023-03-05T18:48:03.857Z,83.71
2023-03-05T18:50:08.376Z,84.13
2023-03-05T18:52:13.451Z,84.56
2023-03-05T18:54:17.702Z,85.09
2023-03-05T18:56:20.402Z,84.62
2023-03-05T18:58:26.438Z,85.82
2023-03-05T19:00:32.786Z,84.97
2023-03-05T19:02:36.836Z,85.80
2023-03-05T19:04:42.485Z,86.53
2023-03-05T19:06:45.610Z,85.38
2023-03-05T19:08:57.911Z,85.85
2023-03-05T19:11:00.985Z,85.35
2023-03-05T19:13:29.025Z,85.71
2023-03-05T19:15:33.518Z,85.07
2023-03-05T19:17:36.730Z,85.74
2023-03-05T19:19:43.548Z,86.91
2023-03-05T19:21:54.473Z,86.53
2023-03-05T19:23:57.920Z,86.01
2023-03-05T19:26:03.466Z,86.61
2023-03-05T19:28:07.518Z,86.36
2023-03-05T19:30:19.078Z,85.96
2023-03-05T19:32:25.689Z,86.03
2023-03-05T19:34:35.206Z,86.55
2023-03-05T19:36:38.299Z,86.51
2023-03-05T19:38:41.793Z,87.38
2023-03-05T19:40:45.292Z,86.02
2023-03-05T19:42:50.334Z,86.06
2023-03-05T19:44:56.886Z,86.96
2023-03-05T19:47:01.846Z,85.78
2023-03-05T19:49:06.404Z,84.70
2023-03-05T19:51:15.186Z,83.88
2023-03-05T19:53:18.372Z,85.39
2023-03-05T19:55:21.639Z,84.14
2023-03-05T19:57:25.497Z,85.14
2023-03-05T19:59:31.838Z,84.73
2023-03-05T20:01:35.664Z,85.72
2023-03-05T20:03:39.249Z,84.70
2023-03-05T20:05:45.012Z,85.35
2023-03-05T20:07:49.166Z,85.03
2023-03-05T20:09:55.222Z,84.41
2023-03-05T20:12:02.139Z,84.60
2023-03-05T20:14:05.697Z,83.72
2023-03-05T20:16:24.157Z,83.96
2023-03-05T20:18:29.506Z,84.17
2023-03-05T20:20:31.951Z,84.52
2023-03-05T20:22:34.555Z,83.46
2023-03-05T20:24:38.487Z,82.53
2023-03-05T20:26:43.394Z,82.84
2023-03-05T20:28:48.016Z,82.44
2023-03-05T20:31:03.176Z,82.07
2023-03-05T20:33:06.292Z,82.03
2023-03-05T20:35:13.889Z,81.62
2023-03-05T20:37:17.009Z,83.29
2023-03-05T20:39:20.039Z,82.13
2023-03-05T20:41:22.924Z,82.39
2023-03-05T20:43:30.959Z,82.75
2023-03-05T20:45:35.938Z,82.43
2023-03-05T20:47:43.139Z,83.20
2023-03-05T20:49:46.129Z,82.97
2023-03-05T20:51:51.127Z,82.70
2023-03-05T20:54:03.115Z,82.28
2023-03-05T20:56:06.303Z,81.96
2023-03-05T20:58:10.398Z,81.77
2023-03-05T21:00:16.110Z,81.86
2023-03-05T21:02:21.897Z,81.82
2023-03-05T21:04:25.808Z,81.62
2023-03-05T21:06:30.323Z,82.06
2023-03-05T21:08:36.062Z,81.26
2023-03-05T21:10:41.190Z,82.03
2023-03-05T21:12:45.668Z,82.38
2023-03-05T21:14:49.497Z,82.03
2023-03-05T21:16:57.354Z,81.65
2023-03-05T21:19:08.632Z,81.25
2023-03-05T21:21:11.539Z,81.35
2023-03-05T21:23:19.208Z,81.54
2023-03-05T21:25:29.441Z,80.26
2023-03-05T21:27:32.114Z,81.67
2023-03-05T21:29:36.982Z,81.41
2023-03-05T21:31:40.251Z,80.13
2023-03-05T21:33:43.488Z,80.38
2023-03-05T21:35:46.102Z,80.10
2023-03-05T21:37:54.528Z,80.64
2023-03-05T21:39:56.901Z,79.83
2023-03-05T21:42:00.235Z,81.38
2023-03-05T21:44:04.341Z,81.03
2023-03-05T21:46:06.849Z,80.84
2023-03-05T21:48:10.199Z,81.42
2023-03-05T21:50:14.974Z,81.75
2023-03-05T21:52:22.216Z,81.06
2023-03-05T21:54:24.689Z,80.71
2023-03-05T21:56:28.389Z,80.37
2023-03-05T21:58:35.820Z,81.17
2023-03-05T22:00:37.836Z,80.21
2023-03-05T22:02:41.481Z,81.70
2023-03-05T22:04:43.998Z,80.84
2023-03-05T22:06:49.769Z,80.91
2023-03-05T22:08:51.829Z,81.76
2023-03-05T22:10:54.900Z,81.40
2023-03-05T22:13:10.974Z,81.07
2023-03-05T22:15:15.657Z,81.67
2023-03-05T22:17:17.640Z,81.66
2023-03-05T22:19:23.990Z,81.32
2023-03-05T22:21:27.661Z,81.52
2023-03-05T22:23:37.128Z,80.07
2023-03-05T22:25:39.609Z,80.87
2023-03-05T22:27:45.867Z,81.34
2023-03-05T22:29:48.853Z,80.74
2023-03-05T22:31:21.078Z,81.49
2023-03-05T22:31:34.983Z,81.52
2023-03-05T22:31:48.916Z,81.75
2023-03-05T22:32:02.803Z,80.72
2023-03-05T22:32:16.708Z,81.16
2023-03-05T22:32:43.200Z,80.87
2023-03-05T22:32:57.087Z,81.40
2023-03-05T22:33:11.372Z,81.21
2023-03-05T22:33:26.004Z,81.47
2023-03-05T22:33:40.004Z,80.81
2023-03-05T22:33:54.422Z,81.79
2023-03-05T22:34:08.324Z,81.64
2023-03-05T22:34:22.396Z,80.96
2023-03-05T22:34:37.799Z,80.82
2023-03-05T22:34:59.458Z,80.77
2023-03-05T22:37:12.499Z,81.45
2023-03-05T22:39:15.482Z,81.29
2023-03-05T22:41:21.917Z,80.55
2023-03-05T22:43:25.876Z,80.79
2023-03-05T22:45:28.874Z,80.80
2023-03-05T22:47:31.551Z,80.54
2023-03-05T22:49:33.575Z,80.65
2023-03-05T22:51:36.678Z,80.50
2023-03-05T22:53:40.498Z,80.90
2023-03-05T22:55:42.864Z,80.32
2023-03-05T22:57:45.752Z,80.82
2023-03-05T22:59:50.041Z,80.29
2023-03-05T23:01:52.260Z,80.39
2023-03-05T23:04:03.604Z,79.81
2023-03-05T23:06:05.990Z,80.24
2023-03-05T23:08:10.260Z,80.44
2023-03-05T23:10:18.279Z,80.58
2023-03-05T23:12:23.524Z,81.61
2023-03-05T23:14:25.400Z,81.45
2023-03-05T23:16:27.304Z,81.84
2023-03-05T23:18:30.279Z,81.35
2023-03-05T23:20:36.542Z,81.29
2023-03-05T23:22:39.778Z,82.14
2023-03-05T23:24:41.955Z,82.73
2023-03-05T23:26:43.990Z,82.49
2023-03-05T23:28:46.003Z,82.64
2023-03-05T23:30:49.091Z,82.78
2023-03-05T23:32:56.657Z,82.80
2023-03-05T23:34:59.660Z,83.15
2023-03-05T23:37:05.536Z,83.05
2023-03-05T23:39:07.543Z,83.26
2023-03-05T23:41:15.200Z,84.09
2023-03-05T23:43:19.039Z,84.05
2023-03-05T23:45:25.231Z,84.55
2023-03-05T23:47:27.138Z,84.86
2023-03-05T23:49:29.140Z,84.54
2023-03-05T23:51:32.112Z,85.07
2023-03-05T23:53:35.515Z,85.02
2023-03-05T23:55:44.029Z,85.74
2023-03-05T23:57:54.488Z,85.88
2023-03-05T23:59:56.748Z,84.85
